Weather at Chicago O'Hare International Airport

Public forecast

Using degrees Fahrenheit for public forecast. Weather courtesy of forecast.io.

Current aviation weather report (METAR) for Chicago O'Hare International Airport

Report is more than 6 hours old.

Retrieved 2022/09/17 18:51 UTC (18 days ago):

KORD 171851Z 22016G23KT 10SM SCT050 SCT100 BKN250 29/16 A2999 RMK AO2 PK WND 21027/1821 SLP151 T02940156

Aviation forecast (TAF) for Chicago O'Hare International Airport

Forecast is more than 12 hours old.

Retrieved 2022/09/17 18:42 UTC (18 days ago):

TAF KORD 171740Z 1718/1824 21013G22KT P6SM SCT050 BKN100 TEMPO 1800/1803 -SHRA FM180300 20011KT P6SM VCSH SCT050 BKN080 PROB30 1806/1812 4SM SHRA BKN050 FM181400 23013G21KT P6SM SCT020 BKN035